Campos Verdes, Brazil
Current Conditions -  °F | °C
As of 6:37 AM on Tuesday 21 Oct 2014 (Local Time) from SBAN Reporting Station
Haze Haze  
Wind Chill: 66°   Ceiling: Unl
Heat Index: 66°   Visibility: 3mi
Dew Point: 61°   Wind: 7mph
Humidity: 83%   Direction: 180°S
Pressure: 30.03"   Gusts: NA
Location:  14.26°S, 49.66°W
Report Text: SBAN 210837Z 18006KT 5000 BR NSC 19/16 Q1017
Loading
Personal Weather Stations






























Interactive Weather Map
Tropical Storm Tracking
New forecast layout! Learn more

10-Day Weather Forecast

Advertisements
Track Severe Weather on mobile